Time;durP1;ratioP1;P1;durP2;ratioP2;P2;SDS_P1;SDS_P2;PMS_P1;PMS_P2;Temp;Humidity;BMP_temperature;BMP_pressure;BME280_temperature;BME280_humidity;BME280_pressure;Samples;Min_cycle;Max_cycle;Signal;HPM_P1;HPM_P2
2023/09/29 00:00:24;;;;;;;2.90;2.60;;;;;;;16.48;100.00;101186.31;4881148;29;21037;-68
2023/09/29 00:02:55;;;;;;;2.20;2.10;;;;;;;16.36;100.00;101180.00;4882291;29;20482;-69
2023/09/29 00:05:24;;;;;;;2.53;2.33;;;;;;;16.48;100.00;101186.31;4886853;29;20491;-68
2023/09/29 00:07:55;;;;;;;3.23;2.00;;;;;;;16.43;100.00;101189.75;4883059;29;20426;-70
2023/09/29 00:10:24;;;;;;;2.60;1.80;;;;;;;16.56;100.00;101194.19;4883727;29;20461;-68
2023/09/29 00:12:53;;;;;;;0.90;0.57;;;;;;;16.73;100.00;101183.44;4886050;29;20413;-70
2023/09/29 00:15:22;;;;;;;3.60;2.90;;;;;;;16.49;100.00;101177.06;4881103;29;20500;-68
2023/09/29 00:17:52;;;;;;;1.20;1.03;;;;;;;16.45;100.00;101175.88;4880199;29;20446;-69
2023/09/29 00:20:23;;;;;;;2.33;2.17;;;;;;;16.46;100.00;101181.09;4881314;29;20410;-67
2023/09/29 00:22:56;;;;;;;2.90;2.70;;;;;;;16.37;100.00;101178.94;4881728;29;20824;-69
2023/09/29 00:25:25;;;;;;;1.13;0.93;;;;;;;16.26;100.00;101175.13;4879722;29;20466;-68
2023/09/29 00:27:55;;;;;;;1.47;1.37;;;;;;;16.16;100.00;101182.19;4882640;29;20444;-70
2023/09/29 00:30:24;;;;;;;3.07;2.87;;;;;;;16.44;100.00;101176.94;4880674;29;20523;-70
2023/09/29 00:32:54;;;;;;;3.47;2.70;;;;;;;16.65;100.00;101176.44;4880744;29;20855;-69
2023/09/29 00:35:28;;;;;;;2.07;1.13;;;;;;;16.49;100.00;101166.97;4880177;29;20451;-68
2023/09/29 00:38:00;;;;;;;2.10;1.63;;;;;;;16.60;100.00;101170.84;4888630;29;20470;-70
2023/09/29 00:40:30;;;;;;;0.90;0.50;;;;;;;16.59;100.00;101171.06;4878257;29;20452;-69
2023/09/29 00:43:00;;;;;;;1.80;1.70;;;;;;;16.41;100.00;101170.03;4881883;29;20495;-69
2023/09/29 00:45:29;;;;;;;3.67;2.70;;;;;;;16.47;100.00;101169.09;4885183;29;20842;-68
2023/09/29 00:48:06;;;;;;;1.63;1.53;;;;;;;16.30;100.00;101170.84;4879757;29;20472;-69
2023/09/29 00:50:36;;;;;;;2.80;1.43;;;;;;;16.17;100.00;101162.84;4882456;29;20432;-69
2023/09/29 00:53:11;;;;;;;3.03;2.83;;;;;;;16.31;100.00;101168.97;4883242;29;20441;-69
2023/09/29 00:55:41;;;;;;;4.60;1.50;;;;;;;16.28;100.00;101169.41;4875018;29;20623;-69
2023/09/29 00:58:12;;;;;;;1.40;1.30;;;;;;;16.03;100.00;101156.75;4880333;29;20479;-70
2023/09/29 01:00:45;;;;;;;1.47;1.13;;;;;;;16.15;100.00;101155.97;4937181;23;20398;-67
2023/09/29 01:03:15;;;;;;;2.23;1.03;;;;;;;16.15;100.00;101155.97;4878258;29;20421;-71
2023/09/29 01:05:46;;;;;;;1.60;1.50;;;;;;;16.07;100.00;101149.75;4879675;29;20430;-69
2023/09/29 01:08:19;;;;;;;1.23;1.13;;;;;;;16.10;100.00;101145.72;4878270;29;20977;-69
2023/09/29 01:10:48;;;;;;;9.10;2.40;;;;;;;15.97;100.00;101143.22;4880774;29;20519;-69
2023/09/29 01:13:18;;;;;;;1.20;0.90;;;;;;;16.00;100.00;101143.56;4881410;29;20526;-70
2023/09/29 01:15:49;;;;;;;1.30;1.20;;;;;;;16.03;100.00;101137.63;4883304;29;20398;-68
2023/09/29 01:18:18;;;;;;;2.23;1.77;;;;;;;16.18;100.00;101141.81;4878266;29;20467;-69
2023/09/29 01:20:48;;;;;;;1.33;0.97;;;;;;;16.07;100.00;101138.03;4881514;29;20616;-69
2023/09/29 01:23:21;;;;;;;1.73;1.43;;;;;;;16.21;100.00;101142.22;4890186;29;20429;-70
2023/09/29 01:25:51;;;;;;;0.90;0.63;;;;;;;16.27;100.00;101138.53;4882806;29;20442;-70
2023/09/29 01:28:20;;;;;;;7.23;3.80;;;;;;;16.57;100.00;101134.91;4882373;29;20449;-68
2023/09/29 01:30:53;;;;;;;1.67;1.10;;;;;;;16.66;100.00;101137.09;4880147;29;20472;-69
2023/09/29 01:33:22;;;;;;;1.43;1.33;;;;;;;16.81;100.00;101147.56;4882191;29;20439;-69
2023/09/29 01:35:52;;;;;;;1.00;0.70;;;;;;;16.61;100.00;101142.44;4880312;29;20470;-69
2023/09/29 01:38:20;;;;;;;4.03;3.10;;;;;;;16.44;100.00;101142.25;4879730;29;20470;-69
2023/09/29 01:40:51;;;;;;;1.63;1.53;;;;;;;16.71;100.00;101141.84;4878709;29;20519;-70
2023/09/29 01:43:23;;;;;;;2.70;1.83;;;;;;;16.52;100.00;101144.66;4882856;29;20491;-70
2023/09/29 01:45:56;;;;;;;0.97;0.87;;;;;;;16.79;100.00;101144.25;4878359;29;20421;-70
2023/09/29 01:48:26;;;;;;;1.53;1.37;;;;;;;16.71;100.00;101142.69;4877767;29;20422;-70
2023/09/29 01:50:54;;;;;;;2.30;2.20;;;;;;;16.78;100.00;101143.41;4872250;29;20497;-67
2023/09/29 01:53:26;;;;;;;1.10;0.93;;;;;;;16.76;100.00;101145.53;4881002;29;20446;-69
2023/09/29 01:56:02;;;;;;;1.90;1.70;;;;;;;16.88;100.00;101140.91;4877534;29;20418;-69
2023/09/29 01:58:32;;;;;;;2.57;2.33;;;;;;;16.86;100.00;101145.78;4874671;29;20448;-68
2023/09/29 02:01:00;;;;;;;1.03;0.93;;;;;;;16.71;100.00;101141.84;4879832;29;20461;-69
2023/09/29 02:03:30;;;;;;;1.47;1.20;;;;;;;16.86;100.00;101140.31;4877535;29;20906;-69
2023/09/29 02:05:59;;;;;;;1.03;0.93;;;;;;;17.05;100.00;101140.19;4881604;29;20502;-69
2023/09/29 02:08:30;;;;;;;1.70;1.60;;;;;;;17.01;100.00;101139.00;4875823;29;20410;-70
2023/09/29 02:11:05;;;;;;;1.03;0.93;;;;;;;16.95;100.00;101138.03;4875975;29;20431;-68
2023/09/29 02:13:35;;;;;;;2.10;1.50;;;;;;;16.91;100.00;101137.69;4879852;29;20467;-70
2023/09/29 02:16:14;;;;;;;2.50;2.40;;;;;;;16.97;100.00;101137.81;4878283;29;20457;-69
2023/09/29 02:18:43;;;;;;;1.73;1.63;;;;;;;16.82;100.00;101136.41;4877939;29;20533;-70
2023/09/29 02:21:22;;;;;;;1.27;1.17;;;;;;;16.93;100.00;101132.00;4875802;29;20460;-70
2023/09/29 02:23:52;;;;;;;1.10;0.80;;;;;;;17.00;100.00;101132.69;4879667;29;20492;-71
2023/09/29 02:26:23;;;;;;;1.97;1.13;;;;;;;16.72;100.00;101133.41;4877788;29;20521;-68
2023/09/29 02:28:54;;;;;;;1.73;1.63;;;;;;;16.75;100.00;101129.41;4883851;29;20955;-68
2023/09/29 02:31:26;;;;;;;3.33;2.83;;;;;;;16.72;100.00;101127.13;4871370;29;20602;-70
2023/09/29 02:33:55;;;;;;;1.07;0.93;;;;;;;16.72;100.00;101133.41;4881163;29;20413;-67
2023/09/29 02:36:27;;;;;;;1.10;0.60;;;;;;;16.86;100.00;101123.06;4883672;29;20414;-70
2023/09/29 02:39:03;;;;;;;2.67;1.10;;;;;;;16.87;100.00;101122.84;4878429;29;20909;-70
2023/09/29 02:41:38;;;;;;;1.07;0.97;;;;;;;16.62;100.00;101116.78;4882703;29;20465;-70
2023/09/29 02:44:08;;;;;;;5.97;3.27;;;;;;;16.73;100.00;101118.69;4883765;29;20424;-69
2023/09/29 02:46:36;;;;;;;1.13;1.03;;;;;;;16.70;100.00;101116.41;4879711;29;20414;-67
2023/09/29 02:49:07;;;;;;;1.37;0.80;;;;;;;16.48;100.00;101116.13;4877873;29;20503;-69
2023/09/29 02:51:36;;;;;;;1.30;1.20;;;;;;;16.40;100.00;101110.19;4882593;29;20477;-70
2023/09/29 02:54:10;;;;;;;2.83;1.60;;;;;;;16.40;100.00;101107.47;4880816;29;20461;-69
2023/09/29 02:56:40;;;;;;;2.70;1.70;;;;;;;16.33;100.00;101112.19;4882757;29;20542;-68
2023/09/29 02:59:09;;;;;;;2.13;1.00;;;;;;;16.22;100.00;101110.25;4885262;29;20440;-69
2023/09/29 03:01:42;;;;;;;1.10;0.97;;;;;;;16.13;100.00;101103.47;4881785;29;20505;-69
2023/09/29 03:04:11;;;;;;;1.97;1.87;;;;;;;16.57;100.00;101107.59;4883713;29;20534;-70
2023/09/29 03:06:43;;;;;;;1.37;1.23;;;;;;;16.37;100.00;101107.91;4889558;29;20541;-68
2023/09/29 03:09:13;;;;;;;4.40;2.40;;;;;;;16.16;100.00;101103.03;4890296;29;20438;-69
2023/09/29 03:11:44;;;;;;;3.23;1.57;;;;;;;16.17;100.00;101107.44;4883328;29;20814;-69
2023/09/29 03:14:15;;;;;;;0.83;0.50;;;;;;;16.35;100.00;101110.91;4893716;29;20413;-70
2023/09/29 03:16:47;;;;;;;1.20;0.93;;;;;;;16.44;100.00;101109.50;4887104;29;20408;-68
2023/09/29 03:19:17;;;;;;;2.50;1.67;;;;;;;16.38;100.00;101109.59;4882217;29;20448;-70
2023/09/29 03:21:51;;;;;;;2.57;1.60;;;;;;;16.36;100.00;101106.28;4876337;29;20918;-70
2023/09/29 03:24:27;;;;;;;3.73;3.50;;;;;;;16.74;100.00;101109.44;4881345;29;20462;-69
2023/09/29 03:27:11;;;;;;;2.00;1.30;;;;;;;16.92;100.00;101117.50;4878840;29;20868;-73
2023/09/29 03:29:54;;;;;;;4.10;2.37;;;;;;;16.63;100.00;101109.41;4886566;29;20559;-69
2023/09/29 03:32:41;;;;;;;2.00;1.90;;;;;;;16.58;100.00;101121.06;4869302;29;20562;-67
2023/09/29 03:35:31;;;;;;;1.53;0.97;;;;;;;16.65;100.00;101116.31;4877669;29;20426;-69
2023/09/29 03:38:07;;;;;;;1.67;0.80;;;;;;;16.51;100.00;101109.34;4879224;29;20530;-68
2023/09/29 03:40:56;;;;;;;2.17;2.03;;;;;;;16.40;100.00;101107.47;4880362;29;20550;-70
2023/09/29 03:43:38;;;;;;;0.97;0.80;;;;;;;16.45;100.00;101105.69;4880564;29;20486;-69
2023/09/29 03:46:25;;;;;;;3.93;3.57;;;;;;;16.45;100.00;101099.41;4880197;29;21046;-69
2023/09/29 03:49:00;;;;;;;1.33;1.23;;;;;;;16.58;100.00;101099.19;4888317;29;20980;-70
2023/09/29 03:51:38;;;;;;;0.90;0.80;;;;;;;16.46;100.00;101103.75;4898380;29;20534;-70
2023/09/29 03:54:18;;;;;;;2.77;2.57;;;;;;;16.61;100.00;101100.59;4883125;29;20459;-70
2023/09/29 03:56:56;;;;;;;1.67;1.40;;;;;;;16.43;100.00;101101.53;4877849;29;20495;-69
2023/09/29 04:00:01;;;;;;;2.73;1.70;;;;;;;16.49;100.00;101103.31;4882003;29;20471;-70
2023/09/29 04:02:53;;;;;;;2.37;2.13;;;;;;;16.40;100.00;101102.84;4883756;29;20441;-69
2023/09/29 04:05:37;;;;;;;1.97;1.13;;;;;;;16.51;100.00;101106.63;4881601;29;20456;-69
2023/09/29 04:08:14;;;;;;;1.00;0.80;;;;;;;16.78;100.00;101110.63;4878992;29;20537;-68
2023/09/29 04:11:00;;;;;;;2.10;1.90;;;;;;;16.75;99.07;101116.53;4885380;29;20429;-69
2023/09/29 04:13:44;;;;;;;1.00;0.70;;;;;;;16.67;99.04;101116.91;4879623;29;20517;-68
2023/09/29 04:16:23;;;;;;;3.87;1.90;;;;;;;16.60;98.52;101118.94;4883375;29;20459;-69
2023/09/29 04:19:04;;;;;;;2.63;2.43;;;;;;;16.33;98.25;101115.75;4871122;29;20510;-68
2023/09/29 04:21:57;;;;;;;2.37;2.13;;;;;;;16.37;100.00;101107.91;4886677;29;20873;-69
2023/09/29 04:24:40;;;;;;;1.50;1.40;;;;;;;16.15;100.00;101109.53;4884288;29;20431;-68
2023/09/29 04:27:20;;;;;;;5.83;1.17;;;;;;;16.41;100.00;101109.94;4888818;29;20422;-68
2023/09/29 04:30:06;;;;;;;0.97;0.80;;;;;;;16.60;100.00;101118.94;4891552;29;20422;-69
2023/09/29 04:32:55;;;;;;;3.40;3.10;;;;;;;16.74;99.81;101120.34;4889129;29;20449;-69
2023/09/29 04:35:38;;;;;;;1.87;1.40;;;;;;;16.64;99.34;101127.47;4896839;29;20856;-67
2023/09/29 04:38:21;;;;;;;2.93;1.70;;;;;;;16.31;100.00;101111.59;4883782;29;20463;-68
2023/09/29 04:41:06;;;;;;;2.53;1.27;;;;;;;16.12;100.00;101115.47;4884304;29;20482;-69
2023/09/29 04:43:44;;;;;;;3.10;2.07;;;;;;;16.30;100.00;101112.66;4889117;29;20413;-69
2023/09/29 04:46:28;;;;;;;1.47;1.07;;;;;;;16.47;100.00;101111.75;4896509;29;20426;-70
2023/09/29 04:49:20;;;;;;;2.00;1.60;;;;;;;16.50;99.54;101107.72;4885183;29;20430;-70
2023/09/29 04:51:55;;;;;;;1.70;0.93;;;;;;;16.38;98.92;101104.13;4889808;29;20455;-69
2023/09/29 04:54:46;;;;;;;2.80;2.40;;;;;;;16.43;100.00;101101.53;4874167;29;20438;-69
2023/09/29 04:57:24;;;;;;;1.37;1.07;;;;;;;16.27;98.64;101100.31;4884181;29;20803;-69
2023/09/29 05:00:14;;;;;;;3.27;2.00;;;;;;;16.58;100.00;101104.66;4879563;29;20535;-70
2023/09/29 05:02:55;;;;;;;1.40;0.90;;;;;;;16.66;100.00;101096.09;4883486;29;20445;-70
2023/09/29 05:05:44;;;;;;;1.10;1.00;;;;;;;16.89;98.90;101096.09;4882180;29;20500;-69
2023/09/29 05:08:36;;;;;;;4.67;1.80;;;;;;;16.93;93.57;101113.69;4893627;29;20431;-69
2023/09/29 05:11:28;;;;;;;1.73;1.07;;;;;;;17.03;94.36;101106.78;4882565;29;21084;-70
2023/09/29 05:14:15;;;;;;;2.20;1.13;;;;;;;16.87;93.30;101117.38;4883557;29;20487;-70
2023/09/29 05:17:04;;;;;;;1.73;1.63;;;;;;;16.82;94.40;101111.78;4880471;29;20950;-69
2023/09/29 05:19:47;;;;;;;4.43;1.40;;;;;;;16.98;92.03;101121.19;4879921;29;20450;-71
2023/09/29 05:23:00;;;;;;;1.47;1.37;;;;;;;17.02;94.01;101111.44;4877798;29;20471;-69
2023/09/29 05:25:46;;;;;;;1.80;1.70;;;;;;;16.92;93.54;101111.19;4874269;29;20538;-69
2023/09/29 05:28:25;;;;;;;0.90;0.63;;;;;;;17.00;91.63;101112.72;4889875;29;20448;-70
2023/09/29 05:31:09;;;;;;;1.30;1.03;;;;;;;16.96;91.30;101112.38;4888335;29;20465;-70
2023/09/29 05:34:04;;;;;;;0.97;0.70;;;;;;;17.32;91.45;101112.09;4901477;29;20436;-70
2023/09/29 05:36:48;;;;;;;1.87;1.77;;;;;;;17.40;91.72;101110.88;4881445;29;20507;-67
2023/09/29 05:39:32;;;;;;;3.23;1.93;;;;;;;17.57;87.32;101117.25;4867696;29;21012;-70
2023/09/29 05:42:15;;;;;;;2.47;2.27;;;;;;;17.71;87.40;101115.09;4879486;29;20467;-68
2023/09/29 05:45:11;;;;;;;0.90;0.67;;;;;;;17.72;86.45;101116.75;4879647;29;20426;-68
2023/09/29 05:47:51;;;;;;;1.33;1.23;;;;;;;18.03;84.07;101118.16;4890438;29;20422;-69
2023/09/29 05:50:30;;;;;;;4.30;1.67;;;;;;;18.10;82.73;101113.38;4884262;29;20417;-70
2023/09/29 05:53:17;;;;;;;0.97;0.67;;;;;;;18.34;83.03;101114.91;4877202;29;20530;-68
2023/09/29 05:56:02;;;;;;;3.83;1.27;;;;;;;18.64;80.15;101120.06;4890230;29;20461;-70
2023/09/29 06:01:52;;;;;;;2.13;1.93;;;;;;;18.94;78.47;101119.72;4876286;29;20502;-70
2023/09/29 06:04:55;;;;;;;1.27;1.10;;;;;;;18.88;78.00;101126.22;4895313;29;20862;-70
2023/09/29 06:07:33;;;;;;;1.03;0.80;;;;;;;18.88;78.27;101129.75;4890268;29;20453;-70
2023/09/29 06:10:16;;;;;;;1.87;1.77;;;;;;;18.97;77.83;101133.78;4889879;29;20422;-70
2023/09/29 06:13:01;;;;;;;2.70;1.27;;;;;;;18.95;77.36;101133.19;4886106;29;20458;-70
2023/09/29 06:16:02;;;;;;;1.87;1.73;;;;;;;18.95;77.28;101132.34;4895724;29;20445;-69
2023/09/29 06:18:42;;;;;;;3.13;1.80;;;;;;;18.95;77.67;101135.09;4887985;29;20882;-69
2023/09/29 06:21:24;;;;;;;1.90;1.40;;;;;;;18.80;77.88;101129.38;4905352;29;20484;-69
2023/09/29 06:27:16;;;;;;;5.23;2.27;;;;;;;18.89;77.48;101144.31;4889045;29;20437;-69
2023/09/29 06:30:14;;;;;;;1.13;0.80;;;;;;;18.81;77.67;101126.38;4901291;29;20497;-69
2023/09/29 06:32:57;;;;;;;3.67;1.33;;;;;;;19.00;77.13;101135.16;4886401;29;20413;-70
2023/09/29 06:35:47;;;;;;;1.17;0.63;;;;;;;19.17;76.35;101130.47;4893366;29;20410;-70
2023/09/29 06:38:36;;;;;;;1.43;1.10;;;;;;;19.30;75.41;101134.78;4894827;29;20754;-70
2023/09/29 06:41:15;;;;;;;5.50;3.93;;;;;;;19.37;75.13;101127.16;4887777;29;20513;-69
2023/09/29 06:43:54;;;;;;;1.30;1.00;;;;;;;19.63;74.66;101139.34;4886344;29;20500;-70
2023/09/29 06:46:43;;;;;;;2.83;2.63;;;;;;;19.79;73.39;101142.00;4896839;29;20438;-69
2023/09/29 06:49:30;;;;;;;2.27;1.70;;;;;;;19.81;73.48;101141.75;4876239;29;20872;-68
2023/09/29 06:52:11;;;;;;;2.33;1.73;;;;;;;19.92;72.83;101146.25;4868212;29;20453;-68
2023/09/29 06:54:59;;;;;;;1.10;1.00;;;;;;;19.88;72.79;101145.13;4878570;29;20431;-68
2023/09/29 06:57:41;;;;;;;2.80;1.87;;;;;;;19.79;73.27;101147.50;4878481;29;20506;-69
2023/09/29 07:00:24;;;;;;;1.00;0.60;;;;;;;19.84;72.74;101149.47;4877926;29;20446;-69
2023/09/29 07:03:03;;;;;;;1.83;1.63;;;;;;;19.94;72.59;101150.41;4876921;29;20466;-69
2023/09/29 07:05:40;;;;;;;1.00;0.60;;;;;;;20.03;72.46;101142.56;4875974;29;20503;-69
2023/09/29 07:08:20;;;;;;;1.40;1.07;;;;;;;20.29;71.58;101146.38;4888322;29;20452;-68
2023/09/29 07:11:07;;;;;;;1.00;0.80;;;;;;;20.61;70.22;101140.94;4877766;29;20450;-68
2023/09/29 07:13:48;;;;;;;1.10;0.90;;;;;;;20.51;69.69;101151.84;4877360;29;20435;-69
2023/09/29 07:16:26;;;;;;;1.30;1.07;;;;;;;20.59;69.71;101154.94;4886715;29;20835;-70
2023/09/29 07:19:12;;;;;;;1.43;1.33;;;;;;;20.61;70.04;101157.41;4879516;29;20816;-68
2023/09/29 07:21:56;;;;;;;1.43;1.33;;;;;;;20.68;69.57;101155.25;4882190;29;20864;-68
2023/09/29 07:27:52;;;;;;;2.77;1.60;;;;;;;21.22;66.70;101153.19;4885193;29;20429;-68
2023/09/29 07:30:31;;;;;;;1.00;0.60;;;;;;;21.15;66.75;101153.47;4876349;29;20964;-69
2023/09/29 07:33:15;;;;;;;1.57;0.87;;;;;;;21.34;66.07;101151.09;4896771;29;20465;-68
2023/09/29 07:36:13;;;;;;;1.13;0.93;;;;;;;21.63;65.17;101148.75;4881899;29;20429;-69
2023/09/29 07:38:57;;;;;;;1.10;0.87;;;;;;;21.91;65.02;101150.22;4875650;29;20541;-69
2023/09/29 07:44:35;;;;;;;1.57;1.40;;;;;;;22.38;62.72;101150.03;4881077;29;20460;-69
2023/09/29 07:47:21;;;;;;;1.43;1.33;;;;;;;22.53;61.63;101152.81;4885401;29;20436;-69
2023/09/29 07:49:58;;;;;;;2.70;1.43;;;;;;;22.62;61.87;101162.19;4874847;29;20482;-69
2023/09/29 07:52:44;;;;;;;6.80;1.90;;;;;;;22.62;61.33;101156.69;4880462;29;20453;-72
2023/09/29 07:55:34;;;;;;;1.53;1.43;;;;;;;22.75;62.16;101158.91;4880232;29;20457;-69
2023/09/29 07:58:15;;;;;;;1.37;1.23;;;;;;;22.87;60.99;101159.47;4867745;29;21108;-69
2023/09/29 08:01:01;;;;;;;1.70;1.60;;;;;;;22.84;60.57;101157.28;4880239;29;20457;-68
2023/09/29 08:03:53;;;;;;;1.80;1.70;;;;;;;23.02;60.30;101149.50;4880773;29;20458;-69
2023/09/29 08:06:32;;;;;;;1.40;0.93;;;;;;;23.30;59.67;101151.66;4877195;29;20522;-68
2023/09/29 08:09:24;;;;;;;1.07;0.87;;;;;;;23.33;59.19;101142.81;4880791;29;20418;-68
2023/09/29 08:12:08;;;;;;;1.73;0.90;;;;;;;23.35;59.22;101137.81;4864469;29;20475;-70
2023/09/29 08:14:44;;;;;;;1.77;1.53;;;;;;;23.38;59.18;101143.59;4874175;29;20731;-68
2023/09/29 08:17:19;;;;;;;1.83;0.90;;;;;;;23.30;59.21;101144.19;4881780;29;20425;-68
2023/09/29 08:19:56;;;;;;;1.20;0.90;;;;;;;23.24;59.73;101138.97;4881163;29;20488;-69
2023/09/29 08:22:34;;;;;;;1.40;0.80;;;;;;;23.17;59.71;101141.19;4874676;29;20474;-69
2023/09/29 08:25:15;;;;;;;3.27;1.57;;;;;;;23.28;59.38;101148.34;4874515;29;20429;-69
2023/09/29 08:27:54;;;;;;;3.77;1.53;;;;;;;23.27;59.81;101142.00;4875972;29;20519;-70
2023/09/29 08:30:30;;;;;;;1.30;1.00;;;;;;;23.31;59.36;101150.53;4891168;29;20445;-69
2023/09/29 08:33:17;;;;;;;1.00;0.70;;;;;;;23.25;59.99;101143.38;4886677;29;20443;-69
2023/09/29 08:36:11;;;;;;;1.27;0.93;;;;;;;23.50;59.34;101150.78;4890783;29;20449;-70
2023/09/29 08:38:52;;;;;;;1.10;0.70;;;;;;;23.44;59.66;101146.34;4877502;29;20555;-69
2023/09/29 08:41:37;;;;;;;1.00;0.60;;;;;;;23.39;60.06;101145.25;4877875;29;20498;-69
2023/09/29 08:44:23;;;;;;;1.40;0.80;;;;;;;23.44;59.73;101147.19;4881796;29;20504;-71
2023/09/29 08:47:01;;;;;;;1.10;0.87;;;;;;;23.49;58.92;101147.19;4876665;29;20438;-71
2023/09/29 08:49:35;;;;;;;1.10;0.73;;;;;;;23.51;59.29;101147.75;4879137;29;20471;-70
2023/09/29 08:52:24;;;;;;;1.83;1.10;;;;;;;23.60;59.19;101154.34;4878820;29;20563;-70
2023/09/29 08:55:01;;;;;;;1.93;1.60;;;;;;;23.80;58.62;101165.31;4879504;29;20459;-69
2023/09/29 08:57:36;;;;;;;1.60;1.17;;;;;;;23.83;58.99;101170.25;4878686;29;20484;-69
2023/09/29 09:00:12;;;;;;;2.20;1.33;;;;;;;23.90;58.86;101169.13;4879181;29;20447;-70
2023/09/29 09:02:46;;;;;;;1.20;0.80;;;;;;;23.77;58.67;101170.56;4886767;29;20512;-69
2023/09/29 09:05:21;;;;;;;1.70;1.60;;;;;;;23.74;59.04;101177.50;4872813;29;20549;-69
2023/09/29 09:07:54;;;;;;;1.57;1.23;;;;;;;23.49;59.90;101183.09;4879357;29;20447;-69
2023/09/29 09:10:34;;;;;;;2.03;1.13;;;;;;;23.46;60.06;101182.84;4875507;29;20421;-70
2023/09/29 09:13:11;;;;;;;1.87;1.77;;;;;;;23.37;60.63;101171.53;4881427;29;20439;-70
2023/09/29 09:16:00;;;;;;;1.90;1.30;;;;;;;23.21;61.36;101167.13;4890109;29;20465;-70
2023/09/29 09:18:37;;;;;;;1.23;1.07;;;;;;;23.29;61.08;101172.06;4877569;29;20455;-70
2023/09/29 09:21:16;;;;;;;1.33;0.93;;;;;;;23.41;60.86;101175.38;4878150;29;20470;-70
2023/09/29 09:23:51;;;;;;;1.77;1.07;;;;;;;23.44;60.89;101174.81;4876410;29;20442;-70
2023/09/29 09:26:31;;;;;;;1.73;1.07;;;;;;;23.44;60.24;101174.81;4887797;29;20446;-69
2023/09/29 09:29:15;;;;;;;2.80;1.63;;;;;;;23.59;60.65;101182.25;4880644;29;20820;-70
2023/09/29 09:31:50;;;;;;;1.60;1.37;;;;;;;23.53;60.98;101169.59;4879149;29;20474;-69
2023/09/29 09:34:36;;;;;;;1.20;0.60;;;;;;;23.41;61.04;101178.13;4884524;29;20435;-69
2023/09/29 09:37:14;;;;;;;1.63;1.40;;;;;;;23.41;61.08;101180.91;4876133;29;20455;-70
2023/09/29 09:39:48;;;;;;;1.47;0.80;;;;;;;23.44;61.26;101190.53;4876874;29;20455;-70
2023/09/29 09:42:27;;;;;;;1.20;0.50;;;;;;;23.24;62.83;101181.19;4878035;29;20510;-70
2023/09/29 09:45:09;;;;;;;2.20;1.47;;;;;;;23.40;61.55;101180.06;4880672;29;20461;-70
2023/09/29 09:47:44;;;;;;;1.20;0.67;;;;;;;23.52;61.85;101179.81;4871436;29;20468;-70
2023/09/29 09:50:21;;;;;;;1.20;0.53;;;;;;;23.50;61.11;101179.25;4864681;29;20446;-70
2023/09/29 09:52:59;;;;;;;1.00;0.80;;;;;;;23.81;61.29;101179.97;4873456;29;20447;-69
2023/09/29 09:55:39;;;;;;;1.63;1.03;;;;;;;24.01;60.13;101181.81;4864994;29;20820;-70
2023/09/29 09:58:21;;;;;;;1.00;0.53;;;;;;;24.11;59.60;101179.78;4878899;29;20446;-69
2023/09/29 10:01:04;;;;;;;2.43;0.90;;;;;;;24.27;59.78;101176.97;4880652;29;20481;-69
2023/09/29 10:03:38;;;;;;;1.40;0.70;;;;;;;24.43;58.24;101168.28;4878103;29;20479;-68
2023/09/29 10:06:18;;;;;;;0.90;0.47;;;;;;;24.24;58.37;101161.78;4880826;29;20474;-69
2023/09/29 10:09:08;;;;;;;1.10;0.70;;;;;;;24.57;58.11;101176.75;4877722;29;20458;-69
2023/09/29 10:11:47;;;;;;;3.23;2.93;;;;;;;24.78;57.81;101171.88;4887381;29;20495;-69
2023/09/29 10:14:22;;;;;;;2.03;1.27;;;;;;;24.88;57.31;101175.44;4880654;29;20451;-68
2023/09/29 10:17:12;;;;;;;1.50;0.90;;;;;;;24.77;57.01;101175.75;4876602;29;20446;-70
2023/09/29 10:19:50;;;;;;;0.90;0.60;;;;;;;24.52;57.95;101174.84;4885725;29;20455;-70
2023/09/29 10:22:28;;;;;;;1.40;0.77;;;;;;;24.55;58.35;101168.72;4880396;29;20456;-69
2023/09/29 10:25:19;;;;;;;2.03;0.97;;;;;;;24.29;58.92;101171.97;4875986;29;20455;-68
2023/09/29 10:28:17;;;;;;;1.10;0.60;;;;;;;24.10;59.22;101174.56;4877574;29;20459;-69
2023/09/29 10:30:51;;;;;;;1.00;0.60;;;;;;;24.12;60.42;101166.78;4882572;29;20873;-70
2023/09/29 10:33:31;;;;;;;1.30;0.80;;;;;;;24.27;60.34;101172.25;4862085;29;20462;-68
2023/09/29 10:36:09;;;;;;;1.63;1.03;;;;;;;24.55;59.46;101179.78;4884673;29;20433;-69
2023/09/29 10:38:43;;;;;;;1.73;1.00;;;;;;;24.79;58.39;101173.50;4875400;29;20821;-69
2023/09/29 10:41:18;;;;;;;1.10;0.80;;;;;;;24.83;58.39;101177.38;4877935;29;20491;-69
2023/09/29 10:44:07;;;;;;;1.73;1.23;;;;;;;25.02;57.29;101178.34;4884619;29;20445;-68
2023/09/29 10:46:56;;;;;;;1.30;0.93;;;;;;;25.28;56.71;101178.88;4879489;29;20859;-70
2023/09/29 10:49:36;;;;;;;1.53;1.00;;;;;;;25.46;56.40;101173.41;4881978;29;20448;-70
2023/09/29 10:52:22;;;;;;;1.40;0.73;;;;;;;25.84;55.14;101182.69;4874768;29;20855;-69
2023/09/29 10:54:58;;;;;;;1.50;0.90;;;;;;;25.78;55.21;101178.34;4873254;29;20467;-70
2023/09/29 10:57:33;;;;;;;2.03;0.80;;;;;;;25.78;55.10;101180.28;4880378;29;20459;-70
2023/09/29 11:00:09;;;;;;;1.97;1.57;;;;;;;25.73;55.40;101174.81;4876488;29;20475;-70
2023/09/29 11:02:48;;;;;;;1.00;0.60;;;;;;;25.49;56.22;101167.28;4874324;29;20547;-70
2023/09/29 11:05:30;;;;;;;1.10;0.60;;;;;;;25.62;55.89;101176.88;4878032;29;20933;-69
2023/09/29 11:08:05;;;;;;;4.60;2.27;;;;;;;25.44;56.30;101175.66;4881366;29;20485;-69
2023/09/29 11:10:46;;;;;;;2.70;1.30;;;;;;;25.22;56.80;101167.06;4878631;29;21020;-69
2023/09/29 11:13:20;;;;;;;1.77;1.40;;;;;;;25.10;57.78;101159.16;4880413;29;20458;-70
2023/09/29 11:15:56;;;;;;;1.20;0.87;;;;;;;24.94;58.86;101156.81;4877651;29;20889;-71
2023/09/29 11:18:30;;;;;;;1.50;0.93;;;;;;;24.91;59.31;101157.41;4879577;29;20480;-69
2023/09/29 11:21:09;;;;;;;1.10;0.80;;;;;;;24.74;60.15;101149.47;4881161;29;20504;-68
2023/09/29 11:23:45;;;;;;;1.60;1.10;;;;;;;24.56;61.68;101142.72;4882152;29;20503;-69
2023/09/29 11:26:20;;;;;;;1.00;0.60;;;;;;;24.86;59.02;101149.09;4880401;29;20818;-69
2023/09/29 11:28:52;;;;;;;1.13;0.90;;;;;;;25.08;58.11;101139.22;4877438;29;20856;-70
2023/09/29 11:31:25;;;;;;;1.50;0.90;;;;;;;25.15;58.07;101144.41;4881886;29;20908;-68
2023/09/29 11:34:01;;;;;;;1.53;1.10;;;;;;;24.98;59.55;101144.84;4878577;29;20799;-70
2023/09/29 11:36:37;;;;;;;0.93;0.50;;;;;;;24.77;59.17;101137.00;4881580;29;20450;-69
2023/09/29 11:39:16;;;;;;;1.40;1.10;;;;;;;24.65;59.54;101135.44;4875427;29;20546;-69
2023/09/29 11:41:48;;;;;;;1.33;0.77;;;;;;;24.73;59.67;101130.41;4880082;29;20475;-70
2023/09/29 11:44:19;;;;;;;1.83;1.60;;;;;;;24.56;60.19;101134.41;4878801;29;20475;-69
2023/09/29 11:46:56;;;;;;;1.40;1.00;;;;;;;24.58;60.15;101148.81;4869138;29;20451;-70
2023/09/29 11:49:30;;;;;;;1.70;0.80;;;;;;;24.89;59.35;101141.06;4881706;29;20438;-70
2023/09/29 11:52:05;;;;;;;4.70;1.17;;;;;;;24.73;59.92;101135.94;4879700;29;20491;-69
2023/09/29 11:54:40;;;;;;;1.93;0.63;;;;;;;24.81;59.41;101124.25;4880962;29;20435;-70
2023/09/29 11:57:15;;;;;;;1.00;0.70;;;;;;;24.94;59.09;101123.59;4881388;29;20462;-68
2023/09/29 11:59:49;;;;;;;1.53;0.73;;;;;;;25.37;57.50;101124.50;4880843;29;20457;-70
2023/09/29 12:02:22;;;;;;;1.77;0.87;;;;;;;25.48;57.18;101132.41;4880356;29;20840;-69
2023/09/29 12:04:54;;;;;;;1.40;1.03;;;;;;;25.38;57.74;101128.91;4875145;29;20472;-70
2023/09/29 12:07:31;;;;;;;1.30;1.00;;;;;;;25.43;57.56;101128.84;4877599;29;20557;-69
2023/09/29 12:10:06;;;;;;;2.83;2.60;;;;;;;25.51;57.90;101125.44;4878727;29;20986;-69
2023/09/29 12:12:39;;;;;;;1.47;1.37;;;;;;;25.67;56.82;101121.38;4880023;29;20564;-70
2023/09/29 12:15:14;;;;;;;1.30;1.00;;;;;;;25.28;57.51;101117.94;4879239;29;20542;-69
2023/09/29 12:17:47;;;;;;;1.27;0.80;;;;;;;25.05;58.53;101114.06;4882777;29;20451;-69
2023/09/29 12:20:21;;;;;;;1.40;1.17;;;;;;;24.90;58.45;101119.75;4878785;29;20447;-69
2023/09/29 12:22:59;;;;;;;2.90;1.03;;;;;;;24.85;58.72;101111.47;4880008;29;20439;-69
2023/09/29 12:25:32;;;;;;;1.80;0.90;;;;;;;24.77;59.83;101101.03;4894628;29;20988;-70